sensor_id;sensor_type;location;lat;lon;timestamp;P1;durP1;ratioP1;P2;durP2;ratioP2
31660;SDS011;18267;52.234;7.444;2022-12-29T00:01:36;2.55;;;1.00;;
31660;SDS011;18267;52.234;7.444;2022-12-29T00:04:02;0.90;;;0.75;;
31660;SDS011;18267;52.234;7.444;2022-12-29T00:06:28;1.40;;;0.80;;
31660;SDS011;18267;52.234;7.444;2022-12-29T00:08:54;4.28;;;0.98;;
31660;SDS011;18267;52.234;7.444;2022-12-29T00:11:21;1.42;;;0.80;;
31660;SDS011;18267;52.234;7.444;2022-12-29T00:13:48;1.08;;;0.98;;
31660;SDS011;18267;52.234;7.444;2022-12-29T00:16:33;2.13;;;0.98;;
31660;SDS011;18267;52.234;7.444;2022-12-29T00:19:00;0.98;;;0.90;;
31660;SDS011;18267;52.234;7.444;2022-12-29T00:21:26;5.03;;;1.00;;
31660;SDS011;18267;52.234;7.444;2022-12-29T00:24:20;5.15;;;1.50;;
31660;SDS011;18267;52.234;7.444;2022-12-29T00:26:53;1.40;;;0.75;;
31660;SDS011;18267;52.234;7.444;2022-12-29T00:29:47;1.50;;;0.80;;
31660;SDS011;18267;52.234;7.444;2022-12-29T00:32:32;0.73;;;0.68;;
31660;SDS011;18267;52.234;7.444;2022-12-29T00:35:23;1.13;;;0.80;;
31660;SDS011;18267;52.234;7.444;2022-12-29T00:38:03;4.22;;;0.70;;
31660;SDS011;18267;52.234;7.444;2022-12-29T00:40:49;1.85;;;0.73;;
31660;SDS011;18267;52.234;7.444;2022-12-29T00:43:33;0.70;;;0.57;;
31660;SDS011;18267;52.234;7.444;2022-12-29T00:46:17;0.47;;;0.40;;
31660;SDS011;18267;52.234;7.444;2022-12-29T00:48:43;0.70;;;0.70;;
31660;SDS011;18267;52.234;7.444;2022-12-29T00:51:27;0.95;;;0.80;;
31660;SDS011;18267;52.234;7.444;2022-12-29T00:53:52;0.82;;;0.70;;
31660;SDS011;18267;52.234;7.444;2022-12-29T00:56:18;2.05;;;0.73;;
31660;SDS011;18267;52.234;7.444;2022-12-29T00:58:43;3.33;;;0.65;;
31660;SDS011;18267;52.234;7.444;2022-12-29T01:01:09;1.35;;;0.68;;
31660;SDS011;18267;52.234;7.444;2022-12-29T01:03:35;0.85;;;0.70;;
31660;SDS011;18267;52.234;7.444;2022-12-29T01:06:08;1.58;;;0.77;;
31660;SDS011;18267;52.234;7.444;2022-12-29T01:08:35;2.63;;;0.57;;
31660;SDS011;18267;52.234;7.444;2022-12-29T01:13:33;4.20;;;0.80;;
31660;SDS011;18267;52.234;7.444;2022-12-29T01:16:00;3.03;;;0.82;;
31660;SDS011;18267;52.234;7.444;2022-12-29T01:18:26;4.53;;;0.60;;
31660;SDS011;18267;52.234;7.444;2022-12-29T01:20:59;4.45;;;0.73;;
31660;SDS011;18267;52.234;7.444;2022-12-29T01:23:26;0.77;;;0.77;;
31660;SDS011;18267;52.234;7.444;2022-12-29T01:25:52;1.63;;;0.90;;
31660;SDS011;18267;52.234;7.444;2022-12-29T01:28:18;1.27;;;1.10;;
31660;SDS011;18267;52.234;7.444;2022-12-29T01:30:43;1.23;;;0.90;;
31660;SDS011;18267;52.234;7.444;2022-12-29T01:33:09;2.60;;;1.20;;
31660;SDS011;18267;52.234;7.444;2022-12-29T01:35:34;0.95;;;0.80;;
31660;SDS011;18267;52.234;7.444;2022-12-29T01:38:00;2.22;;;0.75;;
31660;SDS011;18267;52.234;7.444;2022-12-29T01:40:25;4.07;;;0.90;;
31660;SDS011;18267;52.234;7.444;2022-12-29T01:42:51;0.70;;;0.47;;
31660;SDS011;18267;52.234;7.444;2022-12-29T01:45:17;0.90;;;0.38;;
31660;SDS011;18267;52.234;7.444;2022-12-29T01:47:44;1.02;;;0.35;;
31660;SDS011;18267;52.234;7.444;2022-12-29T01:50:20;0.70;;;0.45;;
31660;SDS011;18267;52.234;7.444;2022-12-29T01:52:59;0.40;;;0.32;;
31660;SDS011;18267;52.234;7.444;2022-12-29T01:55:28;0.40;;;0.35;;
31660;SDS011;18267;52.234;7.444;2022-12-29T01:57:58;0.75;;;0.60;;
31660;SDS011;18267;52.234;7.444;2022-12-29T02:00:27;0.65;;;0.65;;
31660;SDS011;18267;52.234;7.444;2022-12-29T02:02:53;3.42;;;1.17;;
31660;SDS011;18267;52.234;7.444;2022-12-29T02:05:39;1.70;;;1.60;;
31660;SDS011;18267;52.234;7.444;2022-12-29T02:08:10;3.05;;;1.90;;
31660;SDS011;18267;52.234;7.444;2022-12-29T02:10:37;3.08;;;2.78;;
31660;SDS011;18267;52.234;7.444;2022-12-29T02:13:05;2.78;;;2.58;;
31660;SDS011;18267;52.234;7.444;2022-12-29T02:15:34;4.68;;;2.60;;
31660;SDS011;18267;52.234;7.444;2022-12-29T02:34:06;2.38;;;2.17;;
31660;SDS011;18267;52.234;7.444;2022-12-29T02:41:44;2.45;;;1.73;;
31660;SDS011;18267;52.234;7.444;2022-12-29T02:44:23;1.50;;;1.40;;
31660;SDS011;18267;52.234;7.444;2022-12-29T02:46:55;1.85;;;1.38;;
31660;SDS011;18267;52.234;7.444;2022-12-29T02:49:33;1.40;;;1.10;;
31660;SDS011;18267;52.234;7.444;2022-12-29T02:52:46;2.58;;;1.20;;
31660;SDS011;18267;52.234;7.444;2022-12-29T02:54:55;4.05;;;1.00;;
31660;SDS011;18267;52.234;7.444;2022-12-29T02:59:47;1.08;;;0.95;;
31660;SDS011;18267;52.234;7.444;2022-12-29T03:02:31;5.90;;;0.90;;
31660;SDS011;18267;52.234;7.444;2022-12-29T03:13:39;0.77;;;0.50;;
31660;SDS011;18267;52.234;7.444;2022-12-29T03:16:32;4.95;;;0.70;;
31660;SDS011;18267;52.234;7.444;2022-12-29T03:19:14;0.70;;;0.50;;
31660;SDS011;18267;52.234;7.444;2022-12-29T03:21:54;0.88;;;0.60;;
31660;SDS011;18267;52.234;7.444;2022-12-29T03:24:43;1.63;;;0.50;;
31660;SDS011;18267;52.234;7.444;2022-12-29T03:27:13;0.57;;;0.30;;
31660;SDS011;18267;52.234;7.444;2022-12-29T03:29:45;2.95;;;0.32;;
31660;SDS011;18267;52.234;7.444;2022-12-29T03:32:18;1.27;;;0.40;;
31660;SDS011;18267;52.234;7.444;2022-12-29T03:34:46;0.40;;;0.40;;
31660;SDS011;18267;52.234;7.444;2022-12-29T03:37:15;2.33;;;0.30;;
31660;SDS011;18267;52.234;7.444;2022-12-29T03:39:43;1.40;;;0.50;;
31660;SDS011;18267;52.234;7.444;2022-12-29T03:42:13;1.42;;;0.52;;
31660;SDS011;18267;52.234;7.444;2022-12-29T03:44:42;0.73;;;0.22;;
31660;SDS011;18267;52.234;7.444;2022-12-29T03:47:12;1.25;;;0.40;;
31660;SDS011;18267;52.234;7.444;2022-12-29T03:49:39;0.30;;;0.20;;
31660;SDS011;18267;52.234;7.444;2022-12-29T03:52:05;0.20;;;0.20;;
31660;SDS011;18267;52.234;7.444;2022-12-29T03:54:31;3.70;;;0.35;;
31660;SDS011;18267;52.234;7.444;2022-12-29T03:56:57;1.33;;;0.50;;
31660;SDS011;18267;52.234;7.444;2022-12-29T03:59:22;0.85;;;0.25;;
31660;SDS011;18267;52.234;7.444;2022-12-29T04:01:48;3.00;;;0.28;;
31660;SDS011;18267;52.234;7.444;2022-12-29T04:04:14;0.68;;;0.50;;
31660;SDS011;18267;52.234;7.444;2022-12-29T04:06:39;0.32;;;0.30;;
31660;SDS011;18267;52.234;7.444;2022-12-29T04:09:05;0.75;;;0.50;;
31660;SDS011;18267;52.234;7.444;2022-12-29T04:11:31;2.05;;;0.30;;
31660;SDS011;18267;52.234;7.444;2022-12-29T04:13:56;2.40;;;0.20;;
31660;SDS011;18267;52.234;7.444;2022-12-29T04:16:22;0.75;;;0.40;;
31660;SDS011;18267;52.234;7.444;2022-12-29T04:18:47;2.13;;;0.40;;
31660;SDS011;18267;52.234;7.444;2022-12-29T04:21:13;0.73;;;0.40;;
31660;SDS011;18267;52.234;7.444;2022-12-29T04:23:38;0.50;;;0.30;;
31660;SDS011;18267;52.234;7.444;2022-12-29T04:26:04;2.00;;;0.40;;
31660;SDS011;18267;52.234;7.444;2022-12-29T04:28:34;0.70;;;0.35;;
31660;SDS011;18267;52.234;7.444;2022-12-29T04:31:00;0.25;;;0.25;;
31660;SDS011;18267;52.234;7.444;2022-12-29T04:33:26;0.20;;;0.20;;
31660;SDS011;18267;52.234;7.444;2022-12-29T04:35:51;0.57;;;0.30;;
31660;SDS011;18267;52.234;7.444;2022-12-29T04:38:19;2.22;;;0.57;;
31660;SDS011;18267;52.234;7.444;2022-12-29T04:40:45;3.03;;;0.40;;
31660;SDS011;18267;52.234;7.444;2022-12-29T04:43:11;1.73;;;0.50;;
31660;SDS011;18267;52.234;7.444;2022-12-29T04:45:38;0.55;;;0.20;;
31660;SDS011;18267;52.234;7.444;2022-12-29T04:48:07;1.15;;;0.35;;
31660;SDS011;18267;52.234;7.444;2022-12-29T04:50:33;0.55;;;0.22;;
31660;SDS011;18267;52.234;7.444;2022-12-29T04:52:59;1.38;;;0.35;;
31660;SDS011;18267;52.234;7.444;2022-12-29T04:55:24;0.60;;;0.20;;
31660;SDS011;18267;52.234;7.444;2022-12-29T04:57:50;1.90;;;0.35;;
31660;SDS011;18267;52.234;7.444;2022-12-29T05:00:15;1.00;;;0.38;;
31660;SDS011;18267;52.234;7.444;2022-12-29T05:02:41;2.13;;;0.40;;
31660;SDS011;18267;52.234;7.444;2022-12-29T05:05:07;0.45;;;0.43;;
31660;SDS011;18267;52.234;7.444;2022-12-29T05:07:32;1.08;;;0.30;;
31660;SDS011;18267;52.234;7.444;2022-12-29T05:09:59;1.63;;;0.30;;
31660;SDS011;18267;52.234;7.444;2022-12-29T05:12:24;1.38;;;0.28;;
31660;SDS011;18267;52.234;7.444;2022-12-29T05:14:50;1.75;;;0.30;;
31660;SDS011;18267;52.234;7.444;2022-12-29T05:17:15;1.40;;;0.43;;
31660;SDS011;18267;52.234;7.444;2022-12-29T05:19:41;0.47;;;0.20;;
31660;SDS011;18267;52.234;7.444;2022-12-29T05:22:07;0.60;;;0.30;;
31660;SDS011;18267;52.234;7.444;2022-12-29T05:24:32;1.23;;;0.30;;
31660;SDS011;18267;52.234;7.444;2022-12-29T05:26:58;0.32;;;0.20;;
31660;SDS011;18267;52.234;7.444;2022-12-29T05:29:24;3.70;;;0.38;;
31660;SDS011;18267;52.234;7.444;2022-12-29T05:31:49;4.20;;;0.43;;
31660;SDS011;18267;52.234;7.444;2022-12-29T05:34:15;0.70;;;0.20;;
31660;SDS011;18267;52.234;7.444;2022-12-29T05:36:40;2.15;;;0.30;;
31660;SDS011;18267;52.234;7.444;2022-12-29T05:39:06;1.30;;;0.25;;
31660;SDS011;18267;52.234;7.444;2022-12-29T05:41:32;2.90;;;0.40;;
31660;SDS011;18267;52.234;7.444;2022-12-29T05:43:58;2.03;;;0.30;;
31660;SDS011;18267;52.234;7.444;2022-12-29T05:46:24;0.98;;;0.20;;
31660;SDS011;18267;52.234;7.444;2022-12-29T05:48:50;1.63;;;0.75;;
31660;SDS011;18267;52.234;7.444;2022-12-29T05:51:16;0.55;;;0.20;;
31660;SDS011;18267;52.234;7.444;2022-12-29T05:53:41;0.17;;;0.13;;
31660;SDS011;18267;52.234;7.444;2022-12-29T05:56:07;0.43;;;0.22;;
31660;SDS011;18267;52.234;7.444;2022-12-29T05:58:32;0.85;;;0.30;;
31660;SDS011;18267;52.234;7.444;2022-12-29T06:00:58;0.32;;;0.05;;
31660;SDS011;18267;52.234;7.444;2022-12-29T06:03:24;1.67;;;0.20;;
31660;SDS011;18267;52.234;7.444;2022-12-29T06:05:49;0.80;;;0.22;;
31660;SDS011;18267;52.234;7.444;2022-12-29T06:08:15;1.98;;;0.30;;
31660;SDS011;18267;52.234;7.444;2022-12-29T06:10:40;4.43;;;0.20;;
31660;SDS011;18267;52.234;7.444;2022-12-29T06:13:06;0.20;;;0.10;;
31660;SDS011;18267;52.234;7.444;2022-12-29T06:15:32;4.20;;;1.23;;
31660;SDS011;18267;52.234;7.444;2022-12-29T06:17:58;1.42;;;0.10;;
31660;SDS011;18267;52.234;7.444;2022-12-29T06:20:24;1.98;;;0.30;;
31660;SDS011;18267;52.234;7.444;2022-12-29T06:22:49;1.02;;;0.30;;
31660;SDS011;18267;52.234;7.444;2022-12-29T06:25:15;4.65;;;0.50;;
31660;SDS011;18267;52.234;7.444;2022-12-29T06:27:41;0.77;;;0.45;;
31660;SDS011;18267;52.234;7.444;2022-12-29T06:30:07;2.13;;;0.30;;
31660;SDS011;18267;52.234;7.444;2022-12-29T06:32:34;6.63;;;0.60;;
31660;SDS011;18267;52.234;7.444;2022-12-29T06:35:00;4.47;;;0.57;;
31660;SDS011;18267;52.234;7.444;2022-12-29T06:37:26;0.82;;;0.40;;
31660;SDS011;18267;52.234;7.444;2022-12-29T06:39:51;2.63;;;0.30;;
31660;SDS011;18267;52.234;7.444;2022-12-29T06:42:17;0.98;;;0.45;;
31660;SDS011;18267;52.234;7.444;2022-12-29T06:44:42;6.70;;;0.50;;
31660;SDS011;18267;52.234;7.444;2022-12-29T06:47:08;4.40;;;0.50;;
31660;SDS011;18267;52.234;7.444;2022-12-29T06:49:34;0.43;;;0.30;;
31660;SDS011;18267;52.234;7.444;2022-12-29T06:51:59;9.32;;;0.63;;
31660;SDS011;18267;52.234;7.444;2022-12-29T06:54:25;4.03;;;0.35;;
31660;SDS011;18267;52.234;7.444;2022-12-29T06:56:51;1.55;;;0.35;;
31660;SDS011;18267;52.234;7.444;2022-12-29T06:59:17;2.97;;;0.38;;
31660;SDS011;18267;52.234;7.444;2022-12-29T07:01:43;4.28;;;0.50;;
31660;SDS011;18267;52.234;7.444;2022-12-29T07:04:08;6.97;;;0.68;;
31660;SDS011;18267;52.234;7.444;2022-12-29T07:06:34;4.45;;;0.63;;
31660;SDS011;18267;52.234;7.444;2022-12-29T07:08:59;1.02;;;0.28;;
31660;SDS011;18267;52.234;7.444;2022-12-29T07:11:25;3.33;;;0.43;;
31660;SDS011;18267;52.234;7.444;2022-12-29T07:13:51;4.32;;;0.47;;
31660;SDS011;18267;52.234;7.444;2022-12-29T07:16:16;3.72;;;0.40;;
31660;SDS011;18267;52.234;7.444;2022-12-29T07:18:42;2.65;;;0.38;;
31660;SDS011;18267;52.234;7.444;2022-12-29T07:21:08;1.08;;;0.30;;
31660;SDS011;18267;52.234;7.444;2022-12-29T07:23:34;2.75;;;0.45;;
31660;SDS011;18267;52.234;7.444;2022-12-29T07:26:03;5.20;;;0.68;;
31660;SDS011;18267;52.234;7.444;2022-12-29T07:28:30;3.85;;;0.73;;
31660;SDS011;18267;52.234;7.444;2022-12-29T07:30:59;3.58;;;0.47;;
31660;SDS011;18267;52.234;7.444;2022-12-29T07:33:25;2.65;;;0.30;;
31660;SDS011;18267;52.234;7.444;2022-12-29T07:35:53;3.25;;;0.32;;
31660;SDS011;18267;52.234;7.444;2022-12-29T07:38:19;4.63;;;0.50;;
31660;SDS011;18267;52.234;7.444;2022-12-29T07:40:44;6.53;;;0.57;;
31660;SDS011;18267;52.234;7.444;2022-12-29T07:43:10;4.75;;;0.40;;
31660;SDS011;18267;52.234;7.444;2022-12-29T07:45:35;3.42;;;0.47;;
31660;SDS011;18267;52.234;7.444;2022-12-29T07:48:01;4.85;;;0.60;;
31660;SDS011;18267;52.234;7.444;2022-12-29T07:50:27;4.93;;;0.47;;
31660;SDS011;18267;52.234;7.444;2022-12-29T07:52:53;5.10;;;0.65;;
31660;SDS011;18267;52.234;7.444;2022-12-29T07:55:19;3.60;;;0.50;;
31660;SDS011;18267;52.234;7.444;2022-12-29T07:57:44;2.20;;;0.20;;
31660;SDS011;18267;52.234;7.444;2022-12-29T08:00:10;2.40;;;0.30;;
31660;SDS011;18267;52.234;7.444;2022-12-29T08:02:36;4.20;;;0.55;;
31660;SDS011;18267;52.234;7.444;2022-12-29T08:05:01;1.55;;;0.40;;
31660;SDS011;18267;52.234;7.444;2022-12-29T08:07:27;6.60;;;0.63;;
31660;SDS011;18267;52.234;7.444;2022-12-29T08:09:53;6.45;;;0.38;;
31660;SDS011;18267;52.234;7.444;2022-12-29T08:12:18;3.80;;;0.65;;
31660;SDS011;18267;52.234;7.444;2022-12-29T08:14:44;3.95;;;0.75;;
31660;SDS011;18267;52.234;7.444;2022-12-29T08:17:09;1.42;;;0.40;;
31660;SDS011;18267;52.234;7.444;2022-12-29T08:19:35;4.15;;;0.68;;
31660;SDS011;18267;52.234;7.444;2022-12-29T08:22:01;1.55;;;0.47;;
31660;SDS011;18267;52.234;7.444;2022-12-29T08:24:27;3.20;;;0.40;;
31660;SDS011;18267;52.234;7.444;2022-12-29T08:26:53;0.93;;;0.20;;
31660;SDS011;18267;52.234;7.444;2022-12-29T08:29:18;4.45;;;0.47;;
31660;SDS011;18267;52.234;7.444;2022-12-29T08:31:46;4.82;;;0.60;;
31660;SDS011;18267;52.234;7.444;2022-12-29T08:34:12;2.08;;;0.40;;
31660;SDS011;18267;52.234;7.444;2022-12-29T08:36:37;4.38;;;0.65;;
31660;SDS011;18267;52.234;7.444;2022-12-29T08:39:03;6.78;;;0.77;;
31660;SDS011;18267;52.234;7.444;2022-12-29T08:41:28;3.05;;;0.43;;
31660;SDS011;18267;52.234;7.444;2022-12-29T08:43:54;5.13;;;0.35;;
31660;SDS011;18267;52.234;7.444;2022-12-29T08:46:20;2.92;;;0.40;;
31660;SDS011;18267;52.234;7.444;2022-12-29T08:48:45;4.55;;;0.55;;
31660;SDS011;18267;52.234;7.444;2022-12-29T08:51:11;7.32;;;0.50;;
31660;SDS011;18267;52.234;7.444;2022-12-29T08:53:36;2.53;;;0.60;;
31660;SDS011;18267;52.234;7.444;2022-12-29T08:56:02;4.60;;;0.68;;
31660;SDS011;18267;52.234;7.444;2022-12-29T08:58:28;4.55;;;0.57;;
31660;SDS011;18267;52.234;7.444;2022-12-29T09:00:55;2.15;;;0.47;;
31660;SDS011;18267;52.234;7.444;2022-12-29T09:03:21;6.93;;;0.73;;
31660;SDS011;18267;52.234;7.444;2022-12-29T09:05:51;7.80;;;0.75;;
31660;SDS011;18267;52.234;7.444;2022-12-29T09:08:18;1.88;;;0.30;;
31660;SDS011;18267;52.234;7.444;2022-12-29T09:10:44;0.82;;;0.30;;
31660;SDS011;18267;52.234;7.444;2022-12-29T09:13:10;1.15;;;0.35;;
31660;SDS011;18267;52.234;7.444;2022-12-29T09:15:37;6.25;;;0.73;;
31660;SDS011;18267;52.234;7.444;2022-12-29T09:18:02;2.63;;;0.55;;
31660;SDS011;18267;52.234;7.444;2022-12-29T09:20:28;2.58;;;0.60;;
31660;SDS011;18267;52.234;7.444;2022-12-29T09:22:54;5.68;;;0.30;;
31660;SDS011;18267;52.234;7.444;2022-12-29T09:25:19;5.80;;;0.73;;
31660;SDS011;18267;52.234;7.444;2022-12-29T09:27:48;8.98;;;0.88;;
31660;SDS011;18267;52.234;7.444;2022-12-29T09:30:14;7.13;;;1.38;;
31660;SDS011;18267;52.234;7.444;2022-12-29T09:32:39;2.65;;;0.40;;
31660;SDS011;18267;52.234;7.444;2022-12-29T09:35:05;3.30;;;0.50;;
31660;SDS011;18267;52.234;7.444;2022-12-29T09:37:31;2.72;;;0.80;;
31660;SDS011;18267;52.234;7.444;2022-12-29T09:39:57;6.65;;;0.55;;
31660;SDS011;18267;52.234;7.444;2022-12-29T09:42:24;11.63;;;0.88;;
31660;SDS011;18267;52.234;7.444;2022-12-29T09:47:39;7.20;;;0.68;;
31660;SDS011;18267;52.234;7.444;2022-12-29T09:52:46;2.67;;;0.55;;
31660;SDS011;18267;52.234;7.444;2022-12-29T09:55:41;4.15;;;0.45;;
31660;SDS011;18267;52.234;7.444;2022-12-29T10:01:00;2.92;;;0.57;;
31660;SDS011;18267;52.234;7.444;2022-12-29T10:04:03;7.05;;;0.80;;
31660;SDS011;18267;52.234;7.444;2022-12-29T10:14:26;8.05;;;0.77;;
31660;SDS011;18267;52.234;7.444;2022-12-29T10:20:12;7.35;;;0.57;;
31660;SDS011;18267;52.234;7.444;2022-12-29T10:25:41;14.43;;;1.17;;
31660;SDS011;18267;52.234;7.444;2022-12-29T10:30:47;5.93;;;0.88;;
31660;SDS011;18267;52.234;7.444;2022-12-29T10:33:26;2.60;;;0.85;;
31660;SDS011;18267;52.234;7.444;2022-12-29T10:36:12;3.35;;;0.52;;
31660;SDS011;18267;52.234;7.444;2022-12-29T10:38:44;7.18;;;0.60;;
31660;SDS011;18267;52.234;7.444;2022-12-29T10:41:35;9.10;;;0.65;;
31660;SDS011;18267;52.234;7.444;2022-12-29T10:44:09;4.78;;;0.52;;
31660;SDS011;18267;52.234;7.444;2022-12-29T10:46:38;5.88;;;0.77;;
31660;SDS011;18267;52.234;7.444;2022-12-29T10:49:04;7.05;;;0.55;;
31660;SDS011;18267;52.234;7.444;2022-12-29T10:51:38;2.47;;;0.50;;
31660;SDS011;18267;52.234;7.444;2022-12-29T10:54:10;4.47;;;0.93;;
31660;SDS011;18267;52.234;7.444;2022-12-29T10:56:45;5.75;;;0.38;;
31660;SDS011;18267;52.234;7.444;2022-12-29T10:59:20;8.85;;;0.65;;
31660;SDS011;18267;52.234;7.444;2022-12-29T11:02:00;1.17;;;0.32;;
31660;SDS011;18267;52.234;7.444;2022-12-29T11:07:18;8.00;;;0.50;;
31660;SDS011;18267;52.234;7.444;2022-12-29T11:09:45;2.53;;;0.47;;
31660;SDS011;18267;52.234;7.444;2022-12-29T11:12:22;3.83;;;0.77;;
31660;SDS011;18267;52.234;7.444;2022-12-29T11:15:12;4.15;;;0.47;;
31660;SDS011;18267;52.234;7.444;2022-12-29T11:22:53;3.35;;;0.80;;
31660;SDS011;18267;52.234;7.444;2022-12-29T11:25:19;2.35;;;0.55;;
31660;SDS011;18267;52.234;7.444;2022-12-29T11:30:39;5.68;;;0.60;;
31660;SDS011;18267;52.234;7.444;2022-12-29T11:33:05;7.57;;;0.88;;
31660;SDS011;18267;52.234;7.444;2022-12-29T11:38:16;5.45;;;0.50;;
31660;SDS011;18267;52.234;7.444;2022-12-29T11:40:50;5.53;;;0.90;;
31660;SDS011;18267;52.234;7.444;2022-12-29T11:43:34;6.50;;;0.70;;
31660;SDS011;18267;52.234;7.444;2022-12-29T11:46:03;8.07;;;1.05;;
31660;SDS011;18267;52.234;7.444;2022-12-29T11:48:40;5.25;;;0.40;;
31660;SDS011;18267;52.234;7.444;2022-12-29T11:51:07;4.47;;;0.43;;
31660;SDS011;18267;52.234;7.444;2022-12-29T11:53:38;4.95;;;0.88;;
31660;SDS011;18267;52.234;7.444;2022-12-29T11:56:13;6.07;;;0.57;;
31660;SDS011;18267;52.234;7.444;2022-12-29T11:58:40;5.05;;;0.77;;
31660;SDS011;18267;52.234;7.444;2022-12-29T12:01:07;1.58;;;0.40;;
31660;SDS011;18267;52.234;7.444;2022-12-29T12:03:37;5.80;;;0.57;;
31660;SDS011;18267;52.234;7.444;2022-12-29T12:06:10;1.75;;;0.52;;
31660;SDS011;18267;52.234;7.444;2022-12-29T12:16:39;2.28;;;0.60;;
31660;SDS011;18267;52.234;7.444;2022-12-29T12:22:08;4.63;;;0.70;;
31660;SDS011;18267;52.234;7.444;2022-12-29T12:24:42;2.20;;;0.47;;
31660;SDS011;18267;52.234;7.444;2022-12-29T12:27:14;0.90;;;0.45;;
31660;SDS011;18267;52.234;7.444;2022-12-29T12:30:15;6.45;;;0.70;;
31660;SDS011;18267;52.234;7.444;2022-12-29T12:36:22;6.22;;;0.80;;
31660;SDS011;18267;52.234;7.444;2022-12-29T12:58:31;8.77;;;0.77;;
31660;SDS011;18267;52.234;7.444;2022-12-29T13:03:48;7.55;;;0.75;;
31660;SDS011;18267;52.234;7.444;2022-12-29T13:14:47;8.60;;;1.10;;
31660;SDS011;18267;52.234;7.444;2022-12-29T13:17:21;6.38;;;0.80;;
31660;SDS011;18267;52.234;7.444;2022-12-29T13:20:01;5.68;;;0.80;;
31660;SDS011;18267;52.234;7.444;2022-12-29T13:22:42;4.18;;;1.05;;
31660;SDS011;18267;52.234;7.444;2022-12-29T13:25:18;9.55;;;1.25;;
31660;SDS011;18267;52.234;7.444;2022-12-29T13:27:59;6.28;;;0.77;;
31660;SDS011;18267;52.234;7.444;2022-12-29T13:30:32;6.22;;;0.82;;
31660;SDS011;18267;52.234;7.444;2022-12-29T13:33:11;6.97;;;1.33;;
31660;SDS011;18267;52.234;7.444;2022-12-29T13:36:02;6.88;;;0.93;;
31660;SDS011;18267;52.234;7.444;2022-12-29T13:38:39;9.57;;;1.17;;
31660;SDS011;18267;52.234;7.444;2022-12-29T13:41:10;2.70;;;1.13;;
31660;SDS011;18267;52.234;7.444;2022-12-29T13:43:52;4.03;;;0.93;;
31660;SDS011;18267;52.234;7.444;2022-12-29T13:46:22;3.10;;;0.95;;
31660;SDS011;18267;52.234;7.444;2022-12-29T13:48:56;6.50;;;0.93;;
31660;SDS011;18267;52.234;7.444;2022-12-29T13:51:27;9.13;;;1.30;;
31660;SDS011;18267;52.234;7.444;2022-12-29T13:59:35;9.35;;;0.95;;
31660;SDS011;18267;52.234;7.444;2022-12-29T14:02:13;3.30;;;0.82;;
31660;SDS011;18267;52.234;7.444;2022-12-29T14:07:25;7.30;;;1.42;;
31660;SDS011;18267;52.234;7.444;2022-12-29T14:09:52;4.38;;;0.70;;
31660;SDS011;18267;52.234;7.444;2022-12-29T14:12:20;8.63;;;0.93;;
31660;SDS011;18267;52.234;7.444;2022-12-29T14:14:46;5.63;;;0.93;;
31660;SDS011;18267;52.234;7.444;2022-12-29T14:17:12;4.97;;;1.25;;
31660;SDS011;18267;52.234;7.444;2022-12-29T14:19:43;4.20;;;0.90;;
31660;SDS011;18267;52.234;7.444;2022-12-29T14:22:09;4.13;;;0.55;;
31660;SDS011;18267;52.234;7.444;2022-12-29T14:24:43;3.60;;;0.88;;
31660;SDS011;18267;52.234;7.444;2022-12-29T14:34:49;4.32;;;1.15;;
31660;SDS011;18267;52.234;7.444;2022-12-29T14:37:34;5.80;;;0.70;;
31660;SDS011;18267;52.234;7.444;2022-12-29T14:40:22;7.32;;;0.85;;
31660;SDS011;18267;52.234;7.444;2022-12-29T14:42:53;5.95;;;0.95;;
31660;SDS011;18267;52.234;7.444;2022-12-29T14:47:47;7.00;;;0.98;;
31660;SDS011;18267;52.234;7.444;2022-12-29T14:57:40;7.38;;;1.23;;
31660;SDS011;18267;52.234;7.444;2022-12-29T15:05:41;7.15;;;1.50;;
31660;SDS011;18267;52.234;7.444;2022-12-29T15:08:11;6.53;;;1.00;;
31660;SDS011;18267;52.234;7.444;2022-12-29T15:10:58;4.68;;;1.08;;
31660;SDS011;18267;52.234;7.444;2022-12-29T15:13:35;3.40;;;1.30;;
31660;SDS011;18267;52.234;7.444;2022-12-29T15:16:03;8.52;;;1.30;;
31660;SDS011;18267;52.234;7.444;2022-12-29T15:18:30;3.08;;;0.90;;
31660;SDS011;18267;52.234;7.444;2022-12-29T15:21:04;2.47;;;0.90;;
31660;SDS011;18267;52.234;7.444;2022-12-29T15:23:32;5.70;;;1.25;;
31660;SDS011;18267;52.234;7.444;2022-12-29T15:28:35;3.50;;;0.98;;
31660;SDS011;18267;52.234;7.444;2022-12-29T15:31:22;4.45;;;0.73;;
31660;SDS011;18267;52.234;7.444;2022-12-29T15:33:50;6.70;;;1.02;;
31660;SDS011;18267;52.234;7.444;2022-12-29T15:36:21;5.03;;;0.88;;
31660;SDS011;18267;52.234;7.444;2022-12-29T15:38:49;10.30;;;0.90;;
31660;SDS011;18267;52.234;7.444;2022-12-29T15:41:59;4.95;;;1.15;;
31660;SDS011;18267;52.234;7.444;2022-12-29T15:44:29;5.05;;;0.75;;
31660;SDS011;18267;52.234;7.444;2022-12-29T15:47:12;2.25;;;0.70;;
31660;SDS011;18267;52.234;7.444;2022-12-29T15:49:43;6.18;;;0.55;;
31660;SDS011;18267;52.234;7.444;2022-12-29T15:52:09;1.63;;;0.65;;
31660;SDS011;18267;52.234;7.444;2022-12-29T15:54:36;2.95;;;0.50;;
31660;SDS011;18267;52.234;7.444;2022-12-29T15:57:02;3.25;;;0.80;;
31660;SDS011;18267;52.234;7.444;2022-12-29T15:59:30;11.90;;;0.63;;
31660;SDS011;18267;52.234;7.444;2022-12-29T16:01:58;2.47;;;0.55;;
31660;SDS011;18267;52.234;7.444;2022-12-29T16:04:31;1.60;;;0.43;;
31660;SDS011;18267;52.234;7.444;2022-12-29T16:06:58;5.10;;;0.40;;
31660;SDS011;18267;52.234;7.444;2022-12-29T16:09:32;2.80;;;0.60;;
31660;SDS011;18267;52.234;7.444;2022-12-29T16:12:17;3.80;;;0.55;;
31660;SDS011;18267;52.234;7.444;2022-12-29T16:14:50;6.97;;;0.50;;
31660;SDS011;18267;52.234;7.444;2022-12-29T16:17:21;0.50;;;0.28;;
31660;SDS011;18267;52.234;7.444;2022-12-29T16:19:53;2.03;;;0.50;;
31660;SDS011;18267;52.234;7.444;2022-12-29T16:22:54;4.00;;;0.43;;
31660;SDS011;18267;52.234;7.444;2022-12-29T16:25:28;4.35;;;0.60;;
31660;SDS011;18267;52.234;7.444;2022-12-29T16:28:00;7.40;;;1.03;;
31660;SDS011;18267;52.234;7.444;2022-12-29T16:30:31;0.75;;;0.35;;
31660;SDS011;18267;52.234;7.444;2022-12-29T16:33:03;3.13;;;0.70;;
31660;SDS011;18267;52.234;7.444;2022-12-29T16:35:45;3.10;;;0.65;;
31660;SDS011;18267;52.234;7.444;2022-12-29T16:39:02;5.28;;;0.63;;
31660;SDS011;18267;52.234;7.444;2022-12-29T16:41:00;7.90;;;0.88;;
31660;SDS011;18267;52.234;7.444;2022-12-29T16:43:31;7.60;;;0.80;;
31660;SDS011;18267;52.234;7.444;2022-12-29T16:48:28;4.13;;;0.70;;
31660;SDS011;18267;52.234;7.444;2022-12-29T16:51:10;6.63;;;0.63;;
31660;SDS011;18267;52.234;7.444;2022-12-29T16:53:41;4.50;;;0.65;;
31660;SDS011;18267;52.234;7.444;2022-12-29T16:56:19;5.15;;;0.70;;
31660;SDS011;18267;52.234;7.444;2022-12-29T16:58:49;5.43;;;0.70;;
31660;SDS011;18267;52.234;7.444;2022-12-29T17:01:21;2.22;;;0.57;;
31660;SDS011;18267;52.234;7.444;2022-12-29T17:03:54;7.72;;;0.70;;
31660;SDS011;18267;52.234;7.444;2022-12-29T17:06:26;4.13;;;0.95;;
31660;SDS011;18267;52.234;7.444;2022-12-29T17:08:51;4.25;;;0.60;;
31660;SDS011;18267;52.234;7.444;2022-12-29T17:11:31;7.85;;;1.17;;
31660;SDS011;18267;52.234;7.444;2022-12-29T17:16:45;7.30;;;0.98;;
31660;SDS011;18267;52.234;7.444;2022-12-29T17:19:14;5.07;;;0.73;;
31660;SDS011;18267;52.234;7.444;2022-12-29T17:21:42;6.60;;;1.13;;
31660;SDS011;18267;52.234;7.444;2022-12-29T17:24:13;6.50;;;0.82;;
31660;SDS011;18267;52.234;7.444;2022-12-29T17:26:42;8.85;;;1.00;;
31660;SDS011;18267;52.234;7.444;2022-12-29T17:29:10;5.53;;;1.25;;
31660;SDS011;18267;52.234;7.444;2022-12-29T17:31:43;6.90;;;1.10;;
31660;SDS011;18267;52.234;7.444;2022-12-29T17:34:10;1.65;;;0.63;;
31660;SDS011;18267;52.234;7.444;2022-12-29T17:36:37;10.55;;;0.90;;
31660;SDS011;18267;52.234;7.444;2022-12-29T17:39:04;5.57;;;0.70;;
31660;SDS011;18267;52.234;7.444;2022-12-29T17:41:30;5.03;;;0.73;;
31660;SDS011;18267;52.234;7.444;2022-12-29T17:43:58;5.07;;;1.05;;